createdAt,value
2023-03-02T00:00:41.799Z,42.10
2023-03-02T00:02:05.666Z,40.78
2023-03-02T00:03:08.440Z,39.50
2023-03-02T00:04:22.346Z,38.60
2023-03-02T00:05:24.912Z,38.42
2023-03-02T00:06:28.957Z,36.88
2023-03-02T00:07:33.505Z,41.42
2023-03-02T00:08:36.760Z,39.03
2023-03-02T00:09:39.512Z,39.60
2023-03-02T00:10:42.105Z,41.17
2023-03-02T00:11:45.782Z,40.60
2023-03-02T00:12:48.410Z,41.45
2023-03-02T00:13:50.955Z,41.17
2023-03-02T00:14:53.457Z,41.60
2023-03-02T00:15:56.051Z,40.90
2023-03-02T00:16:58.695Z,40.05
2023-03-02T00:18:01.143Z,43.17
2023-03-02T00:19:03.766Z,42.72
2023-03-02T00:20:15.841Z,46.08
2023-03-02T00:21:18.492Z,46.95
2023-03-02T00:22:21.181Z,45.20
2023-03-02T00:23:23.784Z,42.20
2023-03-02T00:24:26.790Z,43.25
2023-03-02T00:25:29.385Z,39.42
2023-03-02T00:26:36.422Z,37.08
2023-03-02T00:27:39.073Z,37.33
2023-03-02T00:28:42.455Z,37.00
2023-03-02T00:29:45.535Z,38.75
2023-03-02T00:30:48.096Z,36.55
2023-03-02T00:31:50.707Z,40.55
2023-03-02T00:32:53.401Z,39.00
2023-03-02T00:33:55.959Z,40.85
2023-03-02T00:34:58.538Z,38.30
2023-03-02T00:36:01.704Z,42.72
2023-03-02T00:37:04.244Z,43.03
2023-03-02T00:38:07.363Z,43.65
2023-03-02T00:39:10.121Z,41.42
2023-03-02T00:40:13.123Z,41.90
2023-03-02T00:41:16.856Z,39.72
2023-03-02T00:42:20.309Z,40.72
2023-03-02T00:43:27.366Z,42.00
2023-03-02T00:44:29.923Z,41.88
2023-03-02T00:45:32.516Z,43.05
2023-03-02T00:46:35.635Z,40.72
2023-03-02T00:47:39.119Z,43.28
2023-03-02T00:48:42.642Z,42.83
2023-03-02T00:49:49.635Z,39.42
2023-03-02T00:50:52.273Z,39.60
2023-03-02T00:51:54.907Z,40.42
2023-03-02T00:52:57.419Z,41.70
2023-03-02T00:54:02.950Z,41.15
2023-03-02T00:55:06.199Z,38.28
2023-03-02T00:56:09.736Z,41.60
2023-03-02T00:57:15.799Z,41.22
2023-03-02T00:58:18.293Z,40.22
2023-03-02T00:59:26.873Z,40.78
2023-03-02T01:00:52.574Z,39.17
2023-03-02T01:01:59.405Z,41.03
2023-03-02T01:03:04.715Z,40.67
2023-03-02T01:04:07.320Z,42.92
2023-03-02T01:05:10.058Z,41.67
2023-03-02T01:06:18.185Z,43.95
2023-03-02T01:07:21.400Z,44.22
2023-03-02T01:08:25.216Z,43.90
2023-03-02T01:09:28.211Z,47.83
2023-03-02T01:10:34.465Z,51.55
2023-03-02T01:11:36.995Z,50.05
2023-03-02T01:12:39.776Z,52.35
2023-03-02T01:13:43.574Z,49.67
2023-03-02T01:14:48.530Z,50.08
2023-03-02T01:16:00.967Z,50.47
2023-03-02T01:17:04.875Z,49.20
2023-03-02T01:18:07.464Z,47.58
2023-03-02T01:19:10.123Z,48.03
2023-03-02T01:20:13.534Z,44.90
2023-03-02T01:21:18.084Z,46.63
2023-03-02T01:22:22.225Z,44.30
2023-03-02T01:23:25.019Z,47.25
2023-03-02T01:24:27.809Z,42.83
2023-03-02T01:25:30.574Z,42.78
2023-03-02T01:26:33.452Z,46.28
2023-03-02T01:27:36.282Z,47.00
2023-03-02T01:28:38.878Z,45.55
2023-03-02T01:29:41.570Z,45.50
2023-03-02T01:30:44.165Z,43.50
2023-03-02T01:31:46.952Z,45.22
2023-03-02T01:32:49.569Z,50.00
2023-03-02T01:33:52.511Z,42.13
2023-03-02T01:34:55.209Z,43.85
2023-03-02T01:35:57.892Z,43.03
2023-03-02T01:37:00.423Z,45.05
2023-03-02T01:38:05.943Z,47.25
2023-03-02T01:39:08.489Z,45.33
2023-03-02T01:40:13.831Z,45.33
2023-03-02T01:41:17.659Z,37.83
2023-03-02T01:42:20.415Z,42.92
2023-03-02T01:43:23.363Z,42.70
2023-03-02T01:44:40.934Z,45.53
2023-03-02T01:45:55.876Z,41.15
2023-03-02T01:47:21.821Z,35.15
2023-03-02T01:48:45.111Z,40.28
2023-03-02T01:49:59.484Z,41.83
2023-03-02T01:51:03.469Z,40.70
2023-03-02T01:52:06.363Z,43.40
2023-03-02T01:53:09.555Z,42.28
2023-03-02T01:54:17.314Z,43.88
2023-03-02T01:55:24.796Z,45.00
2023-03-02T01:56:31.932Z,49.78
2023-03-02T01:57:43.924Z,44.22
2023-03-02T01:58:49.146Z,42.22
2023-03-02T01:59:56.578Z,45.67
2023-03-02T02:00:59.457Z,39.92
2023-03-02T02:02:04.717Z,40.80
2023-03-02T02:03:21.062Z,40.10
2023-03-02T02:04:24.117Z,39.70
2023-03-02T02:05:28.226Z,42.60
2023-03-02T02:06:41.197Z,39.15
2023-03-02T02:07:44.154Z,36.00
2023-03-02T02:08:47.072Z,37.97
2023-03-02T02:09:51.856Z,37.90
2023-03-02T02:10:54.917Z,37.72
2023-03-02T02:11:57.700Z,38.30
2023-03-02T02:13:00.497Z,36.42
2023-03-02T02:14:03.661Z,37.78
2023-03-02T02:15:07.069Z,40.58
2023-03-02T02:16:09.692Z,38.95
2023-03-02T02:17:13.291Z,41.13
2023-03-02T02:18:15.903Z,41.58
2023-03-02T02:19:55.264Z,38.58
2023-03-02T02:20:59.218Z,40.42
2023-03-02T02:22:02.237Z,40.75
2023-03-02T02:23:18.490Z,42.53
2023-03-02T02:24:25.833Z,41.22
2023-03-02T02:25:49.830Z,42.35
2023-03-02T02:26:55.559Z,45.95
2023-03-02T02:27:58.452Z,44.47
2023-03-02T02:29:12.401Z,41.78
2023-03-02T02:30:15.564Z,41.97
2023-03-02T02:31:41.227Z,42.33
2023-03-02T02:32:45.057Z,43.08
2023-03-02T02:33:51.231Z,41.05
2023-03-02T02:35:16.946Z,45.45
2023-03-02T02:36:25.052Z,40.20
2023-03-02T02:37:34.148Z,41.55
2023-03-02T02:38:39.120Z,41.70
2023-03-02T02:39:45.521Z,43.67
2023-03-02T02:40:59.041Z,41.90
2023-03-02T02:42:10.403Z,40.97
2023-03-02T02:43:14.703Z,42.15
2023-03-02T02:44:18.640Z,41.00
2023-03-02T02:45:26.181Z,44.20
2023-03-02T02:46:29.189Z,43.58
2023-03-02T02:47:32.236Z,40.95
2023-03-02T02:48:35.064Z,41.25
2023-03-02T02:49:39.881Z,42.17
2023-03-02T02:50:43.223Z,41.50
2023-03-02T02:51:46.131Z,40.85
2023-03-02T02:52:56.281Z,39.58
2023-03-02T02:54:03.530Z,41.45
2023-03-02T02:55:15.247Z,41.25
2023-03-02T02:56:18.957Z,39.70
2023-03-02T02:57:24.604Z,37.22
2023-03-02T02:58:48.829Z,36.90
2023-03-02T02:59:54.365Z,38.58
2023-03-02T03:00:57.438Z,39.45
2023-03-02T03:02:00.330Z,38.22
2023-03-02T03:03:46.213Z,39.75
2023-03-02T03:04:49.390Z,40.03
2023-03-02T03:05:52.136Z,39.95
2023-03-02T03:06:57.714Z,39.08
2023-03-02T03:08:10.861Z,36.78
2023-03-02T03:09:15.009Z,40.15
2023-03-02T03:10:30.438Z,38.83
2023-03-02T03:11:36.005Z,38.47
2023-03-02T03:12:39.419Z,36.85
2023-03-02T03:13:43.970Z,40.38
2023-03-02T03:14:46.673Z,37.38
2023-03-02T03:15:49.172Z,36.17
2023-03-02T03:16:52.464Z,33.58
2023-03-02T03:17:58.800Z,32.08
2023-03-02T03:19:23.722Z,37.05
2023-03-02T03:20:27.629Z,35.70
2023-03-02T03:21:30.278Z,35.05
2023-03-02T03:22:35.428Z,38.50
2023-03-02T03:23:38.867Z,38.72
2023-03-02T03:24:44.179Z,36.58
2023-03-02T03:25:46.803Z,40.25
2023-03-02T03:26:50.020Z,39.63
2023-03-02T03:27:53.263Z,38.17
2023-03-02T03:28:57.383Z,38.83
2023-03-02T03:30:01.927Z,37.08
2023-03-02T03:31:05.983Z,37.35
2023-03-02T03:32:09.096Z,36.90
2023-03-02T03:33:14.370Z,37.83
2023-03-02T03:34:17.263Z,36.17
2023-03-02T03:35:20.091Z,37.65
2023-03-02T03:36:23.117Z,38.95
2023-03-02T03:37:25.764Z,36.22
2023-03-02T03:38:28.588Z,38.38
2023-03-02T03:39:31.954Z,34.38
2023-03-02T03:40:34.504Z,35.83
2023-03-02T03:41:38.433Z,35.00
2023-03-02T03:42:41.104Z,33.90
2023-03-02T03:43:43.691Z,32.13
2023-03-02T03:44:47.565Z,30.38
2023-03-02T03:45:52.041Z,30.60
2023-03-02T03:46:55.484Z,33.47
2023-03-02T03:47:58.283Z,32.90
2023-03-02T03:49:01.440Z,31.77
2023-03-02T03:50:04.204Z,31.20
2023-03-02T03:51:07.534Z,29.67
2023-03-02T03:52:10.030Z,29.50
2023-03-02T03:53:12.551Z,28.33
2023-03-02T03:54:15.571Z,29.70
2023-03-02T03:55:19.528Z,28.77
2023-03-02T03:56:24.000Z,26.25
2023-03-02T03:57:27.580Z,26.27
2023-03-02T03:58:31.632Z,27.60
2023-03-02T03:59:34.350Z,24.65
2023-03-02T04:00:38.748Z,25.30
2023-03-02T04:01:46.676Z,25.35
2023-03-02T04:02:50.706Z,24.67
2023-03-02T04:03:53.690Z,25.45
2023-03-02T04:04:56.532Z,25.45
2023-03-02T04:05:59.290Z,26.77
2023-03-02T04:07:02.055Z,26.55
2023-03-02T04:08:05.511Z,26.70
2023-03-02T04:09:09.624Z,26.33
2023-03-02T04:10:12.925Z,26.50
2023-03-02T04:11:17.462Z,25.95
2023-03-02T04:12:20.858Z,26.77
2023-03-02T04:13:27.350Z,28.17
2023-03-02T04:14:30.493Z,29.15
2023-03-02T04:15:33.526Z,29.52
2023-03-02T04:16:37.597Z,31.63
2023-03-02T04:17:40.234Z,29.45
2023-03-02T04:18:43.519Z,29.92
2023-03-02T04:19:46.198Z,34.05
2023-03-02T04:20:49.046Z,37.42
2023-03-02T04:21:54.414Z,38.85
2023-03-02T04:22:58.832Z,35.90
2023-03-02T04:24:01.440Z,34.58
2023-03-02T04:25:05.249Z,32.33
2023-03-02T04:26:08.013Z,33.40
2023-03-02T04:27:10.692Z,30.83
2023-03-02T04:28:14.004Z,30.88
2023-03-02T04:29:18.607Z,31.85
2023-03-02T04:30:24.459Z,30.10
2023-03-02T04:31:27.119Z,30.35
2023-03-02T04:32:29.924Z,29.52
2023-03-02T04:33:32.618Z,29.60
2023-03-02T04:34:35.527Z,29.77
2023-03-02T04:35:38.200Z,30.92
2023-03-02T04:36:40.970Z,28.13
2023-03-02T04:37:47.106Z,28.15
2023-03-02T04:38:50.471Z,28.98
2023-03-02T04:39:53.502Z,29.00
2023-03-02T04:40:59.210Z,29.77
2023-03-02T04:42:01.771Z,27.90
2023-03-02T04:43:04.508Z,25.80
2023-03-02T04:44:07.170Z,26.13
2023-03-02T04:45:10.284Z,25.25
2023-03-02T04:46:19.170Z,26.10
2023-03-02T04:47:22.104Z,25.27
2023-03-02T04:48:24.761Z,26.17
2023-03-02T04:49:27.393Z,26.17
2023-03-02T04:50:30.161Z,28.38
2023-03-02T04:51:35.871Z,27.10
2023-03-02T04:52:38.813Z,27.70
2023-03-02T04:53:41.437Z,27.45
2023-03-02T04:54:43.901Z,28.98
2023-03-02T04:55:47.382Z,27.98
2023-03-02T04:56:51.598Z,27.83
2023-03-02T04:57:54.178Z,29.52
2023-03-02T04:58:57.015Z,27.42
2023-03-02T04:59:59.567Z,26.90
2023-03-02T05:01:03.591Z,28.15
2023-03-02T05:02:06.358Z,25.75
2023-03-02T05:03:08.949Z,26.23
2023-03-02T05:04:11.811Z,25.52
2023-03-02T05:05:24.317Z,26.27
2023-03-02T05:06:26.942Z,28.02
2023-03-02T05:07:29.408Z,25.73
2023-03-02T05:08:32.455Z,25.92
2023-03-02T05:09:35.078Z,27.80
2023-03-02T05:10:37.683Z,26.52
2023-03-02T05:11:40.494Z,25.55
2023-03-02T05:12:55.797Z,26.00
2023-03-02T05:14:01.178Z,26.60
2023-03-02T05:15:03.943Z,29.02
2023-03-02T05:16:06.749Z,27.55
2023-03-02T05:17:09.290Z,26.63
2023-03-02T05:18:12.066Z,26.00
2023-03-02T05:19:14.724Z,28.02
2023-03-02T05:20:18.243Z,28.65
2023-03-02T05:21:20.826Z,26.95
2023-03-02T05:22:23.282Z,27.20
2023-03-02T05:23:27.191Z,27.55
2023-03-02T05:24:29.750Z,27.25
2023-03-02T05:25:34.572Z,27.52
2023-03-02T05:26:37.746Z,27.52
2023-03-02T05:27:41.343Z,26.60
2023-03-02T05:28:44.906Z,26.92
2023-03-02T05:29:47.395Z,27.20
2023-03-02T05:30:50.281Z,27.40
2023-03-02T05:31:52.877Z,28.50
2023-03-02T05:32:55.690Z,26.15
2023-03-02T05:33:58.586Z,25.67
2023-03-02T05:35:01.341Z,26.20
2023-03-02T05:36:03.996Z,25.58
2023-03-02T05:37:06.501Z,26.48
2023-03-02T05:38:09.409Z,23.73
2023-03-02T05:39:12.781Z,25.70
2023-03-02T05:40:17.362Z,24.92
2023-03-02T05:41:20.211Z,25.27
2023-03-02T05:42:22.940Z,25.05
2023-03-02T05:43:25.591Z,26.38
2023-03-02T05:44:28.224Z,27.23
2023-03-02T05:45:37.123Z,25.50
2023-03-02T05:46:39.792Z,26.33
2023-03-02T05:47:42.564Z,25.80
2023-03-02T05:48:45.476Z,24.38
2023-03-02T05:49:47.960Z,24.77
2023-03-02T05:50:50.501Z,25.45
2023-03-02T05:51:53.047Z,26.42
2023-03-02T05:52:55.682Z,24.92
2023-03-02T05:53:58.192Z,24.15
2023-03-02T05:55:00.866Z,25.05
2023-03-02T05:56:04.172Z,24.15
2023-03-02T05:57:07.326Z,25.52
2023-03-02T05:58:14.604Z,25.13
2023-03-02T05:59:17.145Z,26.38
2023-03-02T06:00:20.683Z,25.15
2023-03-02T06:01:23.193Z,25.65
2023-03-02T06:02:25.839Z,23.83
2023-03-02T06:03:29.094Z,24.63
2023-03-02T06:04:31.732Z,24.50
2023-03-02T06:05:34.496Z,24.65
2023-03-02T06:06:37.359Z,22.63
2023-03-02T06:07:40.502Z,23.55
2023-03-02T06:08:43.693Z,24.42
2023-03-02T06:09:46.253Z,24.95
2023-03-02T06:10:50.787Z,23.13
2023-03-02T06:11:53.516Z,23.27
2023-03-02T06:12:56.653Z,22.85
2023-03-02T06:13:59.137Z,22.33
2023-03-02T06:15:02.038Z,23.55
2023-03-02T06:16:05.144Z,23.58
2023-03-02T06:17:07.736Z,22.50
2023-03-02T06:18:12.615Z,23.30
2023-03-02T06:19:15.239Z,23.38
2023-03-02T06:20:18.303Z,22.88
2023-03-02T06:21:20.959Z,24.30
2023-03-02T06:22:23.454Z,24.63
2023-03-02T06:23:26.056Z,23.63
2023-03-02T06:24:28.635Z,22.27
2023-03-02T06:25:31.578Z,23.80
2023-03-02T06:26:34.422Z,24.15
2023-03-02T06:27:38.674Z,24.27
2023-03-02T06:28:56.561Z,22.85
2023-03-02T06:29:59.459Z,21.55
2023-03-02T06:31:01.977Z,24.15
2023-03-02T06:32:04.774Z,24.33
2023-03-02T06:33:07.461Z,25.60
2023-03-02T06:34:10.134Z,22.85
2023-03-02T06:35:14.326Z,22.35
2023-03-02T06:36:17.656Z,23.58
2023-03-02T06:37:20.369Z,24.38
2023-03-02T06:38:23.203Z,24.00
2023-03-02T06:39:25.664Z,23.25
2023-03-02T06:40:28.166Z,21.92
2023-03-02T06:41:31.111Z,25.65
2023-03-02T06:42:33.871Z,23.05
2023-03-02T06:43:36.354Z,21.63
2023-03-02T06:44:38.829Z,22.65
2023-03-02T06:45:41.476Z,21.88
2023-03-02T06:46:44.714Z,21.75
2023-03-02T06:47:47.232Z,21.42
2023-03-02T06:48:49.753Z,22.98
2023-03-02T06:49:52.290Z,20.27
2023-03-02T06:50:54.926Z,21.40
2023-03-02T06:51:57.443Z,21.10
2023-03-02T06:53:00.189Z,21.38
2023-03-02T06:54:02.796Z,20.58
2023-03-02T06:55:05.982Z,21.67
2023-03-02T06:56:08.971Z,22.42
2023-03-02T06:57:11.549Z,19.40
2023-03-02T06:58:14.125Z,18.40
2023-03-02T06:59:16.628Z,20.35
2023-03-02T07:00:26.220Z,19.65
2023-03-02T07:01:33.192Z,21.52
2023-03-02T07:02:36.680Z,20.35
2023-03-02T07:03:39.375Z,19.88
2023-03-02T07:04:42.049Z,20.90
2023-03-02T07:05:46.168Z,20.13
2023-03-02T07:06:49.084Z,21.70
2023-03-02T07:07:51.693Z,18.67
2023-03-02T07:08:54.198Z,19.42
2023-03-02T07:09:56.780Z,19.25
2023-03-02T07:10:59.383Z,19.08
2023-03-02T07:12:02.011Z,19.00
2023-03-02T07:13:04.450Z,19.35
2023-03-02T07:14:07.097Z,19.50
2023-03-02T07:15:12.325Z,19.58
2023-03-02T07:16:16.048Z,19.63
2023-03-02T07:17:18.825Z,19.92
2023-03-02T07:18:21.392Z,18.48
2023-03-02T07:19:24.041Z,18.73
2023-03-02T07:20:26.700Z,17.73
2023-03-02T07:21:29.207Z,19.30
2023-03-02T07:22:32.184Z,19.70
2023-03-02T07:23:35.300Z,18.92
2023-03-02T07:24:37.925Z,18.65
2023-03-02T07:25:40.471Z,17.15
2023-03-02T07:26:43.250Z,19.42
2023-03-02T07:27:46.068Z,19.08
2023-03-02T07:28:48.778Z,17.02
2023-03-02T07:29:51.328Z,19.35
2023-03-02T07:30:54.552Z,17.58
2023-03-02T07:31:59.914Z,18.00
2023-03-02T07:33:02.583Z,17.35
2023-03-02T07:34:05.039Z,18.88
2023-03-02T07:35:07.996Z,18.15
2023-03-02T07:36:10.727Z,19.65
2023-03-02T07:37:13.218Z,18.25
2023-03-02T07:38:15.740Z,17.20
2023-03-02T07:39:18.808Z,15.18
2023-03-02T07:40:21.326Z,15.88
2023-03-02T07:41:23.807Z,15.50
2023-03-02T07:42:26.463Z,14.75
2023-03-02T07:43:35.639Z,15.57
2023-03-02T07:44:38.665Z,13.85
2023-03-02T07:45:41.246Z,13.68
2023-03-02T07:46:44.022Z,13.70
2023-03-02T07:47:46.592Z,13.98
2023-03-02T07:48:49.297Z,14.27
2023-03-02T07:49:51.864Z,13.57
2023-03-02T07:51:01.293Z,14.85
2023-03-02T07:52:04.654Z,13.93
2023-03-02T07:53:07.192Z,14.02
2023-03-02T07:54:09.813Z,14.65
2023-03-02T07:55:12.238Z,12.60
2023-03-02T07:56:14.799Z,13.43
2023-03-02T07:57:18.271Z,13.45
2023-03-02T07:58:21.574Z,12.73
2023-03-02T07:59:24.657Z,13.82
2023-03-02T08:00:27.513Z,10.57
2023-03-02T08:01:30.136Z,11.95
2023-03-02T08:02:33.708Z,10.57
2023-03-02T08:03:37.107Z,13.15
2023-03-02T08:04:39.642Z,11.05
2023-03-02T08:05:42.155Z,12.35
2023-03-02T08:06:44.773Z,11.18
2023-03-02T08:07:47.576Z,10.70
2023-03-02T08:08:50.123Z,10.93
2023-03-02T08:09:52.741Z,11.65
2023-03-02T08:10:55.276Z,11.43
2023-03-02T08:11:57.902Z,10.60
2023-03-02T08:13:00.414Z,10.18
2023-03-02T08:14:03.635Z,9.23
2023-03-02T08:15:06.774Z,9.93
2023-03-02T08:16:11.845Z,10.07
2023-03-02T08:17:14.424Z,9.15
2023-03-02T08:18:17.124Z,9.63
2023-03-02T08:19:20.371Z,9.35
2023-03-02T08:20:22.942Z,9.48
2023-03-02T08:21:27.085Z,8.45
2023-03-02T08:22:29.646Z,8.48
2023-03-02T08:23:32.174Z,9.00
2023-03-02T08:24:35.516Z,8.77
2023-03-02T08:25:38.621Z,9.27
2023-03-02T08:26:41.199Z,8.57
2023-03-02T08:27:46.056Z,8.20
2023-03-02T08:28:48.716Z,8.18
2023-03-02T08:29:51.538Z,8.55
2023-03-02T08:30:58.031Z,8.98
2023-03-02T08:32:00.732Z,8.18
2023-03-02T08:33:06.976Z,8.98
2023-03-02T08:34:09.734Z,7.32
2023-03-02T08:35:12.984Z,9.05
2023-03-02T08:36:18.384Z,8.20
2023-03-02T08:37:21.106Z,9.23
2023-03-02T08:38:24.489Z,11.23
2023-03-02T08:39:30.392Z,12.80
2023-03-02T08:40:33.122Z,13.95
2023-03-02T08:41:35.996Z,13.10
2023-03-02T08:42:38.602Z,14.00
2023-03-02T08:43:41.512Z,12.85
2023-03-02T08:44:44.581Z,12.88
2023-03-02T08:45:55.084Z,12.93
2023-03-02T08:46:57.607Z,13.52
2023-03-02T08:48:00.126Z,13.90
2023-03-02T08:49:02.629Z,13.35
2023-03-02T08:50:05.926Z,15.45
2023-03-02T08:51:21.588Z,13.75
2023-03-02T08:52:24.053Z,14.00
2023-03-02T08:53:27.849Z,13.93
2023-03-02T08:54:30.397Z,12.70
2023-03-02T08:55:36.578Z,14.63
2023-03-02T08:56:39.734Z,14.45
2023-03-02T08:57:42.427Z,14.27
2023-03-02T08:58:45.130Z,13.23
2023-03-02T08:59:47.869Z,14.02
2023-03-02T09:00:50.750Z,11.82
2023-03-02T09:01:53.332Z,11.55
2023-03-02T09:02:55.790Z,10.80
2023-03-02T09:04:00.814Z,9.27
2023-03-02T09:05:03.543Z,9.95
2023-03-02T09:06:06.179Z,8.35
2023-03-02T09:07:09.627Z,9.32
2023-03-02T09:08:12.902Z,8.88
2023-03-02T09:09:15.917Z,9.45
2023-03-02T09:10:18.414Z,8.25
2023-03-02T09:11:21.020Z,8.85
2023-03-02T09:12:23.491Z,9.30
2023-03-02T09:13:25.928Z,8.55
2023-03-02T09:14:28.579Z,9.27
2023-03-02T09:15:31.332Z,10.75
2023-03-02T09:16:33.963Z,11.27
2023-03-02T09:17:36.979Z,12.82
2023-03-02T09:18:39.748Z,12.98
2023-03-02T09:19:44.482Z,11.10
2023-03-02T09:20:51.957Z,10.48
2023-03-02T09:21:54.481Z,9.88
2023-03-02T09:22:57.091Z,10.63
2023-03-02T09:23:59.904Z,11.60
2023-03-02T09:25:04.507Z,10.48
2023-03-02T09:26:07.246Z,10.88
2023-03-02T09:27:09.865Z,9.85
2023-03-02T09:28:12.420Z,10.40
2023-03-02T09:29:15.002Z,8.77
2023-03-02T09:30:17.600Z,10.20
2023-03-02T09:31:20.468Z,8.50
2023-03-02T09:32:23.324Z,7.68
2023-03-02T09:33:26.713Z,7.65
2023-03-02T09:34:29.532Z,6.68
2023-03-02T09:35:32.048Z,7.57
2023-03-02T09:36:35.111Z,6.68
2023-03-02T09:37:39.069Z,7.60
2023-03-02T09:38:41.663Z,6.78
2023-03-02T09:39:44.145Z,7.18
2023-03-02T09:40:49.374Z,8.30
2023-03-02T09:42:05.131Z,8.07
2023-03-02T09:43:20.432Z,8.32
2023-03-02T09:44:51.316Z,8.82
2023-03-02T09:46:11.854Z,8.68
2023-03-02T09:47:34.563Z,9.52
2023-03-02T09:49:04.252Z,9.48
2023-03-02T09:50:31.736Z,8.82
2023-03-02T09:51:47.540Z,8.63
2023-03-02T09:53:01.725Z,8.00
2023-03-02T09:54:12.655Z,8.30
2023-03-02T09:55:19.189Z,9.50
2023-03-02T09:56:21.858Z,7.65
2023-03-02T09:57:29.084Z,9.02
2023-03-02T09:58:38.490Z,7.53
2023-03-02T09:59:46.623Z,7.30
2023-03-02T10:00:49.744Z,6.63
2023-03-02T10:02:24.328Z,6.22
2023-03-02T10:03:35.534Z,5.55
2023-03-02T10:04:47.447Z,6.50
2023-03-02T10:05:51.753Z,7.25
2023-03-02T10:07:17.118Z,7.13
2023-03-02T10:08:25.977Z,6.90
2023-03-02T10:09:28.610Z,7.72
2023-03-02T10:10:45.742Z,7.90
2023-03-02T10:12:26.907Z,6.78
2023-03-02T10:13:33.875Z,8.02
2023-03-02T10:14:44.472Z,10.18
2023-03-02T10:15:59.146Z,9.45
2023-03-02T10:17:27.489Z,9.75
2023-03-02T10:18:57.626Z,8.07
2023-03-02T10:20:05.905Z,7.88
2023-03-02T10:21:23.077Z,7.85
2023-03-02T10:22:34.542Z,8.52
2023-03-02T10:23:44.830Z,9.05
2023-03-02T10:25:11.661Z,8.50
2023-03-02T10:26:22.982Z,8.85
2023-03-02T10:27:39.364Z,8.82
2023-03-02T10:28:49.553Z,8.90
2023-03-02T10:29:55.190Z,9.85
2023-03-02T10:31:08.492Z,9.88
2023-03-02T10:32:21.436Z,9.48
2023-03-02T10:33:24.285Z,8.57
2023-03-02T10:34:29.503Z,7.95
2023-03-02T10:35:32.356Z,8.13
2023-03-02T10:36:39.690Z,8.27
2023-03-02T10:37:42.280Z,9.35
2023-03-02T10:38:45.643Z,9.32
2023-03-02T10:39:48.581Z,9.93
2023-03-02T10:41:02.471Z,10.90
2023-03-02T10:42:08.034Z,9.35
2023-03-02T10:43:34.801Z,9.95
2023-03-02T10:44:44.503Z,9.32
2023-03-02T10:45:57.528Z,10.65
2023-03-02T10:47:00.225Z,9.52
2023-03-02T10:48:14.080Z,9.32
2023-03-02T10:49:34.237Z,9.40
2023-03-02T10:50:37.181Z,8.77
2023-03-02T10:51:40.000Z,10.90
2023-03-02T10:52:59.778Z,9.98
2023-03-02T10:54:21.092Z,10.40
2023-03-02T10:55:23.742Z,10.18
2023-03-02T10:56:26.240Z,9.38
2023-03-02T10:57:40.122Z,9.68
2023-03-02T10:58:42.715Z,10.70
2023-03-02T10:59:46.965Z,10.57
2023-03-02T11:01:04.226Z,10.32
2023-03-02T11:02:25.685Z,8.13
2023-03-02T11:03:32.662Z,8.75
2023-03-02T11:04:35.169Z,9.00
2023-03-02T11:05:40.111Z,9.73
2023-03-02T11:06:42.548Z,8.55
2023-03-02T11:07:59.101Z,8.25
2023-03-02T11:09:06.643Z,8.55
2023-03-02T11:10:20.968Z,9.55
2023-03-02T11:11:24.850Z,8.05
2023-03-02T11:12:28.209Z,8.77
2023-03-02T11:13:36.195Z,7.93
2023-03-02T11:14:38.765Z,8.75
2023-03-02T11:15:46.918Z,9.38
2023-03-02T11:16:51.506Z,7.72
2023-03-02T11:18:01.055Z,8.90
2023-03-02T11:19:36.288Z,8.48
2023-03-02T11:20:44.193Z,7.13
2023-03-02T11:21:55.560Z,7.95
2023-03-02T11:23:13.500Z,7.45
2023-03-02T11:24:31.679Z,8.52
2023-03-02T11:25:39.106Z,7.28
2023-03-02T11:26:47.774Z,7.28
2023-03-02T11:27:52.747Z,7.68
2023-03-02T11:29:22.757Z,7.40
2023-03-02T11:30:27.210Z,7.57
2023-03-02T11:31:44.440Z,7.97
2023-03-02T11:33:00.607Z,7.65
2023-03-02T11:34:15.670Z,8.48
2023-03-02T11:35:31.943Z,8.85
2023-03-02T11:36:56.669Z,9.15
2023-03-02T11:38:25.032Z,10.25
2023-03-02T11:39:41.134Z,9.70
2023-03-02T11:40:54.284Z,10.05
2023-03-02T11:43:00.878Z,10.30
2023-03-02T11:44:20.792Z,10.40
2023-03-02T11:45:28.964Z,10.48
2023-03-02T11:46:32.693Z,9.95
2023-03-02T11:47:36.519Z,10.30
2023-03-02T11:48:49.037Z,10.02
2023-03-02T11:49:56.343Z,9.77
2023-03-02T11:51:07.136Z,10.05
2023-03-02T11:52:39.310Z,10.48
2023-03-02T11:53:43.851Z,9.20
2023-03-02T11:54:54.367Z,9.85
2023-03-02T11:55:56.868Z,9.52
2023-03-02T11:56:59.675Z,10.40
2023-03-02T11:58:04.155Z,10.25
2023-03-02T11:59:16.323Z,8.98
2023-03-02T12:00:35.184Z,9.00
2023-03-02T12:01:40.336Z,8.35
2023-03-02T12:02:43.102Z,9.20
2023-03-02T12:03:46.140Z,9.10
2023-03-02T12:04:48.976Z,10.27
2023-03-02T12:06:14.625Z,10.90
2023-03-02T12:07:17.292Z,11.07
2023-03-02T12:08:19.744Z,11.88
2023-03-02T12:09:35.999Z,9.75
2023-03-02T12:10:42.652Z,8.40
2023-03-02T12:11:46.337Z,7.07
2023-03-02T12:13:00.848Z,8.73
2023-03-02T12:14:06.333Z,9.30
2023-03-02T12:15:30.645Z,9.45
2023-03-02T12:16:41.423Z,9.23
2023-03-02T12:17:44.054Z,8.45
2023-03-02T12:18:50.929Z,8.25
2023-03-02T12:20:27.262Z,8.38
2023-03-02T12:21:59.862Z,8.35
2023-03-02T12:23:20.088Z,9.05
2023-03-02T12:24:37.176Z,8.63
2023-03-02T12:25:49.587Z,8.45
2023-03-02T12:27:04.896Z,7.60
2023-03-02T12:28:26.185Z,8.52
2023-03-02T12:29:40.086Z,7.78
2023-03-02T12:30:42.797Z,7.63
2023-03-02T12:31:55.528Z,8.88
2023-03-02T12:33:01.246Z,9.70
2023-03-02T12:34:23.392Z,10.95
2023-03-02T12:35:27.181Z,11.95
2023-03-02T12:36:40.470Z,12.05
2023-03-02T12:37:57.142Z,11.90
2023-03-02T12:39:31.819Z,9.88
2023-03-02T12:41:06.704Z,8.93
2023-03-02T12:42:49.866Z,8.15
2023-03-02T12:44:23.770Z,8.23
2023-03-02T12:45:56.524Z,8.45
2023-03-02T12:46:59.624Z,9.68
2023-03-02T12:48:29.855Z,9.45
2023-03-02T12:49:50.247Z,9.18
2023-03-02T12:50:57.900Z,9.45
2023-03-02T12:52:18.997Z,9.18
2023-03-02T12:53:21.902Z,9.63
2023-03-02T12:54:34.889Z,9.27
2023-03-02T12:55:38.845Z,9.23
2023-03-02T12:56:41.715Z,9.45
2023-03-02T12:57:49.047Z,9.13
2023-03-02T12:58:53.128Z,10.23
2023-03-02T12:59:58.491Z,9.98
2023-03-02T13:01:02.729Z,10.60
2023-03-02T13:02:11.290Z,10.65
2023-03-02T13:03:14.594Z,11.30
2023-03-02T13:04:22.187Z,10.82
2023-03-02T13:05:27.637Z,8.77
2023-03-02T13:06:31.990Z,9.85
2023-03-02T13:07:55.220Z,9.23
2023-03-02T13:08:58.911Z,9.82
2023-03-02T13:10:03.769Z,9.88
2023-03-02T13:11:06.632Z,11.07
2023-03-02T13:12:15.157Z,10.55
2023-03-02T13:13:25.154Z,10.48
2023-03-02T13:14:28.577Z,11.00
2023-03-02T13:15:31.033Z,10.70
2023-03-02T13:16:36.943Z,10.98
2023-03-02T13:17:39.722Z,9.68
2023-03-02T13:18:42.228Z,11.15
2023-03-02T13:19:44.827Z,9.80
2023-03-02T13:20:48.303Z,11.23
2023-03-02T13:21:50.969Z,10.73
2023-03-02T13:22:53.934Z,10.63
2023-03-02T13:23:56.644Z,11.20
2023-03-02T13:25:05.519Z,11.05
2023-03-02T13:26:08.083Z,10.27
2023-03-02T13:27:18.025Z,10.45
2023-03-02T13:28:36.589Z,10.23
2023-03-02T13:29:39.218Z,12.40
2023-03-02T13:30:47.813Z,12.55
2023-03-02T13:31:50.640Z,11.50
2023-03-02T13:33:06.378Z,12.20
2023-03-02T13:34:27.520Z,11.70
2023-03-02T13:35:32.788Z,11.43
2023-03-02T13:36:38.549Z,12.88
2023-03-02T13:37:44.199Z,11.63
2023-03-02T13:38:50.327Z,12.63
2023-03-02T13:40:01.204Z,11.43
2023-03-02T13:41:04.147Z,11.50
2023-03-02T13:42:08.858Z,12.07
2023-03-02T13:43:26.581Z,11.93
2023-03-02T13:44:34.445Z,11.25
2023-03-02T13:45:37.523Z,11.55
2023-03-02T13:46:42.182Z,11.45
2023-03-02T13:47:45.299Z,12.43
2023-03-02T13:49:14.015Z,11.32
2023-03-02T13:50:31.432Z,10.27
2023-03-02T13:51:42.356Z,10.82
2023-03-02T13:52:44.913Z,10.27
2023-03-02T13:54:01.647Z,10.90
2023-03-02T13:55:05.155Z,10.48
2023-03-02T13:56:11.733Z,10.48
2023-03-02T13:57:22.566Z,10.98
2023-03-02T13:59:27.900Z,9.82
2023-03-02T14:00:35.181Z,11.13
2023-03-02T14:01:38.252Z,9.85
2023-03-02T14:02:42.782Z,10.57
2023-03-02T14:03:45.373Z,9.50
2023-03-02T14:04:47.877Z,11.70
2023-03-02T14:05:51.557Z,11.85
2023-03-02T14:06:55.204Z,11.77
2023-03-02T14:07:57.947Z,10.48
2023-03-02T14:09:00.514Z,10.55
2023-03-02T14:10:03.178Z,11.15
2023-03-02T14:11:05.956Z,12.30
2023-03-02T14:12:08.495Z,10.73
2023-03-02T14:13:17.789Z,10.77
2023-03-02T14:14:22.759Z,10.98
2023-03-02T14:15:25.578Z,10.50
2023-03-02T14:16:28.417Z,10.98
2023-03-02T14:17:30.969Z,9.82
2023-03-02T14:18:42.145Z,9.57
2023-03-02T14:19:44.687Z,8.88
2023-03-02T14:20:47.283Z,10.88
2023-03-02T14:21:49.831Z,9.10
2023-03-02T14:22:52.366Z,10.05